sensor_id;sensor_type;location;lat;lon;timestamp;P1;durP1;ratioP1;P2;durP2;ratioP2
73563;SDS011;61834;50.196;6.454;2023-02-01T00:01:30;3.05;;;2.33;;
73563;SDS011;61834;50.196;6.454;2023-02-01T00:03:56;2.33;;;2.13;;
73563;SDS011;61834;50.196;6.454;2023-02-01T00:06:21;2.45;;;2.20;;
73563;SDS011;61834;50.196;6.454;2023-02-01T00:08:47;2.72;;;2.45;;
73563;SDS011;61834;50.196;6.454;2023-02-01T00:11:12;3.17;;;2.05;;
73563;SDS011;61834;50.196;6.454;2023-02-01T00:13:39;2.08;;;1.88;;
73563;SDS011;61834;50.196;6.454;2023-02-01T00:16:07;2.25;;;1.90;;
73563;SDS011;61834;50.196;6.454;2023-02-01T00:18:34;3.33;;;1.90;;
73563;SDS011;61834;50.196;6.454;2023-02-01T00:21:00;2.03;;;1.92;;
73563;SDS011;61834;50.196;6.454;2023-02-01T00:23:26;2.70;;;1.90;;
73563;SDS011;61834;50.196;6.454;2023-02-01T00:25:51;2.30;;;1.85;;
73563;SDS011;61834;50.196;6.454;2023-02-01T00:28:17;2.38;;;1.70;;
73563;SDS011;61834;50.196;6.454;2023-02-01T00:30:42;4.63;;;2.20;;
73563;SDS011;61834;50.196;6.454;2023-02-01T00:33:08;3.92;;;2.30;;
73563;SDS011;61834;50.196;6.454;2023-02-01T00:35:34;3.30;;;2.08;;
73563;SDS011;61834;50.196;6.454;2023-02-01T00:37:59;2.22;;;2.03;;
73563;SDS011;61834;50.196;6.454;2023-02-01T00:40:25;3.20;;;2.28;;
73563;SDS011;61834;50.196;6.454;2023-02-01T00:42:51;2.50;;;1.60;;
73563;SDS011;61834;50.196;6.454;2023-02-01T00:45:17;2.65;;;1.75;;
73563;SDS011;61834;50.196;6.454;2023-02-01T00:47:42;5.03;;;1.83;;
73563;SDS011;61834;50.196;6.454;2023-02-01T00:50:08;2.78;;;2.05;;
73563;SDS011;61834;50.196;6.454;2023-02-01T00:52:34;3.78;;;2.00;;
73563;SDS011;61834;50.196;6.454;2023-02-01T00:54:59;2.92;;;2.10;;
73563;SDS011;61834;50.196;6.454;2023-02-01T00:57:25;3.90;;;2.83;;
73563;SDS011;61834;50.196;6.454;2023-02-01T00:59:51;3.85;;;2.30;;
73563;SDS011;61834;50.196;6.454;2023-02-01T01:02:16;4.93;;;2.75;;
73563;SDS011;61834;50.196;6.454;2023-02-01T01:04:41;7.88;;;3.25;;
73563;SDS011;61834;50.196;6.454;2023-02-01T01:07:07;5.85;;;3.58;;
73563;SDS011;61834;50.196;6.454;2023-02-01T01:09:32;5.60;;;3.17;;
73563;SDS011;61834;50.196;6.454;2023-02-01T01:11:58;4.05;;;3.00;;
73563;SDS011;61834;50.196;6.454;2023-02-01T01:14:30;6.63;;;4.03;;
73563;SDS011;61834;50.196;6.454;2023-02-01T01:16:55;7.28;;;3.80;;
73563;SDS011;61834;50.196;6.454;2023-02-01T01:19:21;6.10;;;3.60;;
73563;SDS011;61834;50.196;6.454;2023-02-01T01:21:46;8.77;;;4.25;;
73563;SDS011;61834;50.196;6.454;2023-02-01T01:24:12;10.18;;;4.50;;
73563;SDS011;61834;50.196;6.454;2023-02-01T01:26:37;8.60;;;4.47;;
73563;SDS011;61834;50.196;6.454;2023-02-01T01:29:03;10.07;;;4.63;;
73563;SDS011;61834;50.196;6.454;2023-02-01T01:31:29;10.48;;;4.85;;
73563;SDS011;61834;50.196;6.454;2023-02-01T01:33:56;7.63;;;4.15;;
73563;SDS011;61834;50.196;6.454;2023-02-01T01:36:24;7.72;;;3.95;;
73563;SDS011;61834;50.196;6.454;2023-02-01T01:38:50;11.68;;;4.45;;
73563;SDS011;61834;50.196;6.454;2023-02-01T01:41:20;9.73;;;4.65;;
73563;SDS011;61834;50.196;6.454;2023-02-01T01:44:00;11.50;;;4.32;;
73563;SDS011;61834;50.196;6.454;2023-02-01T01:49:16;7.43;;;3.70;;
73563;SDS011;61834;50.196;6.454;2023-02-01T01:51:55;7.57;;;4.38;;
73563;SDS011;61834;50.196;6.454;2023-02-01T01:54:25;11.32;;;4.18;;
73563;SDS011;61834;50.196;6.454;2023-02-01T01:56:56;11.48;;;4.78;;
73563;SDS011;61834;50.196;6.454;2023-02-01T01:59:25;10.23;;;4.15;;
73563;SDS011;61834;50.196;6.454;2023-02-01T02:01:52;8.73;;;4.90;;
73563;SDS011;61834;50.196;6.454;2023-02-01T02:04:17;13.27;;;4.95;;
73563;SDS011;61834;50.196;6.454;2023-02-01T02:06:54;11.55;;;5.10;;
73563;SDS011;61834;50.196;6.454;2023-02-01T02:09:25;15.18;;;4.90;;
73563;SDS011;61834;50.196;6.454;2023-02-01T02:11:51;10.05;;;4.53;;
73563;SDS011;61834;50.196;6.454;2023-02-01T02:14:17;10.40;;;5.13;;
73563;SDS011;61834;50.196;6.454;2023-02-01T02:16:47;10.02;;;5.15;;
73563;SDS011;61834;50.196;6.454;2023-02-01T02:39:12;13.23;;;4.93;;
73563;SDS011;61834;50.196;6.454;2023-02-01T02:47:23;12.65;;;4.50;;
73563;SDS011;61834;50.196;6.454;2023-02-01T02:50:05;11.85;;;4.90;;
73563;SDS011;61834;50.196;6.454;2023-02-01T02:53:11;11.48;;;4.60;;
73563;SDS011;61834;50.196;6.454;2023-02-01T02:55:59;15.55;;;4.85;;
73563;SDS011;61834;50.196;6.454;2023-02-01T02:58:45;15.32;;;5.40;;
73563;SDS011;61834;50.196;6.454;2023-02-01T03:01:30;13.40;;;5.28;;
73563;SDS011;61834;50.196;6.454;2023-02-01T03:04:16;13.68;;;6.47;;
73563;SDS011;61834;50.196;6.454;2023-02-01T03:06:48;13.95;;;5.55;;
73563;SDS011;61834;50.196;6.454;2023-02-01T03:09:16;17.33;;;5.63;;
73563;SDS011;61834;50.196;6.454;2023-02-01T03:11:45;13.82;;;5.72;;
73563;SDS011;61834;50.196;6.454;2023-02-01T03:14:35;13.40;;;5.97;;
73563;SDS011;61834;50.196;6.454;2023-02-01T03:17:04;17.83;;;6.30;;
73563;SDS011;61834;50.196;6.454;2023-02-01T03:19:40;16.48;;;5.80;;
73563;SDS011;61834;50.196;6.454;2023-02-01T03:22:15;16.17;;;6.00;;
73563;SDS011;61834;50.196;6.454;2023-02-01T03:24:45;15.73;;;6.13;;
73563;SDS011;61834;50.196;6.454;2023-02-01T03:27:18;12.73;;;5.03;;
73563;SDS011;61834;50.196;6.454;2023-02-01T03:32:26;15.52;;;6.10;;
73563;SDS011;61834;50.196;6.454;2023-02-01T03:34:52;14.48;;;5.50;;
73563;SDS011;61834;50.196;6.454;2023-02-01T03:37:22;16.20;;;5.70;;
73563;SDS011;61834;50.196;6.454;2023-02-01T03:39:57;13.77;;;5.50;;
73563;SDS011;61834;50.196;6.454;2023-02-01T03:42:27;14.38;;;5.38;;
73563;SDS011;61834;50.196;6.454;2023-02-01T03:45:33;14.65;;;4.85;;
73563;SDS011;61834;50.196;6.454;2023-02-01T03:47:55;12.90;;;4.72;;
73563;SDS011;61834;50.196;6.454;2023-02-01T03:50:25;14.98;;;4.75;;
73563;SDS011;61834;50.196;6.454;2023-02-01T03:52:57;18.75;;;5.38;;
73563;SDS011;61834;50.196;6.454;2023-02-01T03:55:27;11.00;;;4.20;;
73563;SDS011;61834;50.196;6.454;2023-02-01T04:00:37;18.95;;;4.70;;
73563;SDS011;61834;50.196;6.454;2023-02-01T04:03:04;12.27;;;4.40;;
73563;SDS011;61834;50.196;6.454;2023-02-01T04:05:31;14.38;;;4.00;;
73563;SDS011;61834;50.196;6.454;2023-02-01T04:08:01;13.57;;;5.07;;
73563;SDS011;61834;50.196;6.454;2023-02-01T04:10:27;11.25;;;4.22;;
73563;SDS011;61834;50.196;6.454;2023-02-01T04:12:53;15.07;;;5.88;;
73563;SDS011;61834;50.196;6.454;2023-02-01T04:15:18;18.95;;;4.80;;
73563;SDS011;61834;50.196;6.454;2023-02-01T04:17:44;14.68;;;4.03;;
73563;SDS011;61834;50.196;6.454;2023-02-01T04:20:10;14.23;;;4.40;;
73563;SDS011;61834;50.196;6.454;2023-02-01T04:22:35;14.98;;;4.60;;
73563;SDS011;61834;50.196;6.454;2023-02-01T04:25:01;15.73;;;4.38;;
73563;SDS011;61834;50.196;6.454;2023-02-01T04:27:26;18.33;;;4.38;;
73563;SDS011;61834;50.196;6.454;2023-02-01T04:29:52;13.43;;;4.03;;
73563;SDS011;61834;50.196;6.454;2023-02-01T04:32:18;16.08;;;4.40;;
73563;SDS011;61834;50.196;6.454;2023-02-01T04:34:45;8.75;;;3.63;;
73563;SDS011;61834;50.196;6.454;2023-02-01T04:37:10;11.38;;;3.70;;
73563;SDS011;61834;50.196;6.454;2023-02-01T04:39:35;10.25;;;3.58;;
73563;SDS011;61834;50.196;6.454;2023-02-01T04:42:01;12.93;;;4.22;;
73563;SDS011;61834;50.196;6.454;2023-02-01T04:44:26;13.75;;;4.22;;
73563;SDS011;61834;50.196;6.454;2023-02-01T04:46:52;14.70;;;4.50;;
73563;SDS011;61834;50.196;6.454;2023-02-01T04:49:17;14.88;;;4.38;;
73563;SDS011;61834;50.196;6.454;2023-02-01T04:51:42;11.30;;;3.50;;
73563;SDS011;61834;50.196;6.454;2023-02-01T04:54:08;11.65;;;4.47;;
73563;SDS011;61834;50.196;6.454;2023-02-01T04:56:36;19.35;;;5.05;;
73563;SDS011;61834;50.196;6.454;2023-02-01T04:59:02;21.85;;;4.85;;
73563;SDS011;61834;50.196;6.454;2023-02-01T05:01:27;17.92;;;5.13;;
73563;SDS011;61834;50.196;6.454;2023-02-01T05:03:54;19.38;;;4.82;;
73563;SDS011;61834;50.196;6.454;2023-02-01T05:06:19;16.73;;;4.05;;
73563;SDS011;61834;50.196;6.454;2023-02-01T05:08:45;15.65;;;4.05;;
73563;SDS011;61834;50.196;6.454;2023-02-01T05:11:10;19.58;;;4.80;;
73563;SDS011;61834;50.196;6.454;2023-02-01T05:13:55;16.95;;;4.32;;
73563;SDS011;61834;50.196;6.454;2023-02-01T05:16:21;12.23;;;4.28;;
73563;SDS011;61834;50.196;6.454;2023-02-01T05:18:46;15.10;;;4.22;;
73563;SDS011;61834;50.196;6.454;2023-02-01T05:21:12;15.48;;;4.20;;
73563;SDS011;61834;50.196;6.454;2023-02-01T05:23:37;18.55;;;3.80;;
73563;SDS011;61834;50.196;6.454;2023-02-01T05:26:23;12.95;;;3.58;;
73563;SDS011;61834;50.196;6.454;2023-02-01T05:28:49;12.10;;;3.75;;
73563;SDS011;61834;50.196;6.454;2023-02-01T05:31:15;17.05;;;4.35;;
73563;SDS011;61834;50.196;6.454;2023-02-01T05:33:40;18.90;;;3.63;;
73563;SDS011;61834;50.196;6.454;2023-02-01T05:36:06;13.85;;;3.90;;
73563;SDS011;61834;50.196;6.454;2023-02-01T05:38:32;11.23;;;3.67;;
73563;SDS011;61834;50.196;6.454;2023-02-01T05:40:57;19.10;;;4.32;;
73563;SDS011;61834;50.196;6.454;2023-02-01T05:43:23;11.63;;;4.13;;
73563;SDS011;61834;50.196;6.454;2023-02-01T05:45:48;11.32;;;3.53;;
73563;SDS011;61834;50.196;6.454;2023-02-01T05:48:14;23.67;;;4.63;;
73563;SDS011;61834;50.196;6.454;2023-02-01T05:50:39;9.45;;;3.75;;
73563;SDS011;61834;50.196;6.454;2023-02-01T05:53:07;13.57;;;3.60;;
73563;SDS011;61834;50.196;6.454;2023-02-01T05:55:33;16.35;;;4.10;;
73563;SDS011;61834;50.196;6.454;2023-02-01T05:57:58;12.07;;;4.05;;
73563;SDS011;61834;50.196;6.454;2023-02-01T06:00:24;14.38;;;4.05;;
73563;SDS011;61834;50.196;6.454;2023-02-01T06:02:49;14.05;;;3.17;;
73563;SDS011;61834;50.196;6.454;2023-02-01T06:05:15;14.23;;;3.47;;
73563;SDS011;61834;50.196;6.454;2023-02-01T06:07:40;13.10;;;3.33;;
73563;SDS011;61834;50.196;6.454;2023-02-01T06:10:06;13.93;;;3.60;;
73563;SDS011;61834;50.196;6.454;2023-02-01T06:12:32;16.30;;;3.67;;
73563;SDS011;61834;50.196;6.454;2023-02-01T06:14:57;11.57;;;3.15;;
73563;SDS011;61834;50.196;6.454;2023-02-01T06:17:24;13.93;;;4.43;;
73563;SDS011;61834;50.196;6.454;2023-02-01T06:19:49;12.40;;;3.17;;
73563;SDS011;61834;50.196;6.454;2023-02-01T06:22:15;13.05;;;3.55;;
73563;SDS011;61834;50.196;6.454;2023-02-01T06:24:40;13.27;;;3.00;;
73563;SDS011;61834;50.196;6.454;2023-02-01T06:27:06;16.08;;;3.60;;
73563;SDS011;61834;50.196;6.454;2023-02-01T06:29:32;11.98;;;3.38;;
73563;SDS011;61834;50.196;6.454;2023-02-01T06:31:58;13.20;;;3.60;;
73563;SDS011;61834;50.196;6.454;2023-02-01T06:34:24;15.10;;;3.55;;
73563;SDS011;61834;50.196;6.454;2023-02-01T06:36:49;13.13;;;3.08;;
73563;SDS011;61834;50.196;6.454;2023-02-01T06:39:15;14.02;;;3.53;;
73563;SDS011;61834;50.196;6.454;2023-02-01T06:41:41;17.42;;;4.05;;
73563;SDS011;61834;50.196;6.454;2023-02-01T06:44:08;14.80;;;4.25;;
73563;SDS011;61834;50.196;6.454;2023-02-01T06:46:33;14.35;;;3.67;;
73563;SDS011;61834;50.196;6.454;2023-02-01T06:48:59;12.63;;;3.28;;
73563;SDS011;61834;50.196;6.454;2023-02-01T06:51:25;25.10;;;5.28;;
73563;SDS011;61834;50.196;6.454;2023-02-01T06:53:52;12.02;;;3.13;;
73563;SDS011;61834;50.196;6.454;2023-02-01T06:56:17;21.65;;;5.85;;
73563;SDS011;61834;50.196;6.454;2023-02-01T06:58:43;11.07;;;3.20;;
73563;SDS011;61834;50.196;6.454;2023-02-01T07:01:09;14.70;;;3.17;;
73563;SDS011;61834;50.196;6.454;2023-02-01T07:03:35;14.18;;;2.85;;
73563;SDS011;61834;50.196;6.454;2023-02-01T07:06:01;15.98;;;3.85;;
73563;SDS011;61834;50.196;6.454;2023-02-01T07:08:27;10.95;;;2.90;;
73563;SDS011;61834;50.196;6.454;2023-02-01T07:10:53;14.98;;;3.78;;
73563;SDS011;61834;50.196;6.454;2023-02-01T07:13:19;14.85;;;3.15;;
73563;SDS011;61834;50.196;6.454;2023-02-01T07:15:44;11.80;;;3.00;;
73563;SDS011;61834;50.196;6.454;2023-02-01T07:18:12;14.60;;;3.60;;
73563;SDS011;61834;50.196;6.454;2023-02-01T07:20:41;11.40;;;2.90;;
73563;SDS011;61834;50.196;6.454;2023-02-01T07:23:08;13.95;;;2.60;;
73563;SDS011;61834;50.196;6.454;2023-02-01T07:25:35;17.60;;;2.38;;
73563;SDS011;61834;50.196;6.454;2023-02-01T07:28:00;11.70;;;3.20;;
73563;SDS011;61834;50.196;6.454;2023-02-01T07:30:26;11.05;;;2.83;;
73563;SDS011;61834;50.196;6.454;2023-02-01T07:32:51;13.48;;;3.40;;
73563;SDS011;61834;50.196;6.454;2023-02-01T07:35:16;13.02;;;3.85;;
73563;SDS011;61834;50.196;6.454;2023-02-01T07:37:42;14.73;;;3.47;;
73563;SDS011;61834;50.196;6.454;2023-02-01T07:40:07;13.55;;;2.88;;
73563;SDS011;61834;50.196;6.454;2023-02-01T07:42:34;10.52;;;2.67;;
73563;SDS011;61834;50.196;6.454;2023-02-01T07:44:59;12.07;;;3.53;;
73563;SDS011;61834;50.196;6.454;2023-02-01T07:47:25;14.70;;;3.17;;
73563;SDS011;61834;50.196;6.454;2023-02-01T07:49:51;11.90;;;2.80;;
73563;SDS011;61834;50.196;6.454;2023-02-01T07:52:16;13.55;;;3.70;;
73563;SDS011;61834;50.196;6.454;2023-02-01T07:54:42;14.70;;;3.55;;
73563;SDS011;61834;50.196;6.454;2023-02-01T07:57:08;14.35;;;3.20;;
73563;SDS011;61834;50.196;6.454;2023-02-01T07:59:33;9.57;;;2.42;;
73563;SDS011;61834;50.196;6.454;2023-02-01T08:01:59;14.77;;;3.10;;
73563;SDS011;61834;50.196;6.454;2023-02-01T08:04:24;14.82;;;3.80;;
73563;SDS011;61834;50.196;6.454;2023-02-01T08:06:50;15.30;;;3.60;;
73563;SDS011;61834;50.196;6.454;2023-02-01T08:09:15;11.05;;;2.50;;
73563;SDS011;61834;50.196;6.454;2023-02-01T08:11:41;10.75;;;3.20;;
73563;SDS011;61834;50.196;6.454;2023-02-01T08:14:06;18.63;;;3.60;;
73563;SDS011;61834;50.196;6.454;2023-02-01T08:16:31;7.75;;;2.67;;
73563;SDS011;61834;50.196;6.454;2023-02-01T08:19:00;11.80;;;2.70;;
73563;SDS011;61834;50.196;6.454;2023-02-01T08:21:27;18.42;;;4.03;;
73563;SDS011;61834;50.196;6.454;2023-02-01T08:24:02;15.27;;;3.83;;
73563;SDS011;61834;50.196;6.454;2023-02-01T08:26:28;16.98;;;3.25;;
73563;SDS011;61834;50.196;6.454;2023-02-01T08:28:55;16.63;;;3.42;;
73563;SDS011;61834;50.196;6.454;2023-02-01T08:31:22;14.38;;;3.30;;
73563;SDS011;61834;50.196;6.454;2023-02-01T08:33:50;16.90;;;3.60;;
73563;SDS011;61834;50.196;6.454;2023-02-01T08:36:17;15.60;;;3.20;;
73563;SDS011;61834;50.196;6.454;2023-02-01T08:38:43;14.25;;;3.03;;
73563;SDS011;61834;50.196;6.454;2023-02-01T08:41:12;19.33;;;3.42;;
73563;SDS011;61834;50.196;6.454;2023-02-01T08:43:42;13.32;;;3.65;;
73563;SDS011;61834;50.196;6.454;2023-02-01T08:46:08;18.85;;;4.47;;
73563;SDS011;61834;50.196;6.454;2023-02-01T08:48:34;15.77;;;3.22;;
73563;SDS011;61834;50.196;6.454;2023-02-01T08:51:01;11.98;;;2.58;;
73563;SDS011;61834;50.196;6.454;2023-02-01T08:53:28;14.05;;;2.70;;
73563;SDS011;61834;50.196;6.454;2023-02-01T08:55:54;11.10;;;2.75;;
73563;SDS011;61834;50.196;6.454;2023-02-01T08:58:19;10.25;;;2.42;;
73563;SDS011;61834;50.196;6.454;2023-02-01T09:00:44;15.73;;;4.40;;
73563;SDS011;61834;50.196;6.454;2023-02-01T09:03:10;11.63;;;2.60;;
73563;SDS011;61834;50.196;6.454;2023-02-01T09:05:37;15.43;;;3.30;;
73563;SDS011;61834;50.196;6.454;2023-02-01T09:08:03;9.48;;;2.50;;
73563;SDS011;61834;50.196;6.454;2023-02-01T09:10:29;11.70;;;3.03;;
73563;SDS011;61834;50.196;6.454;2023-02-01T09:12:54;12.25;;;3.03;;
73563;SDS011;61834;50.196;6.454;2023-02-01T09:15:20;15.73;;;3.38;;
73563;SDS011;61834;50.196;6.454;2023-02-01T09:17:45;12.82;;;3.08;;
73563;SDS011;61834;50.196;6.454;2023-02-01T09:20:10;13.20;;;2.75;;
73563;SDS011;61834;50.196;6.454;2023-02-01T09:22:36;14.40;;;2.95;;
73563;SDS011;61834;50.196;6.454;2023-02-01T09:25:02;16.27;;;3.45;;
73563;SDS011;61834;50.196;6.454;2023-02-01T09:27:27;16.85;;;3.05;;
73563;SDS011;61834;50.196;6.454;2023-02-01T09:29:53;9.95;;;2.65;;
73563;SDS011;61834;50.196;6.454;2023-02-01T09:32:22;16.27;;;3.75;;
73563;SDS011;61834;50.196;6.454;2023-02-01T09:34:48;17.90;;;3.22;;
73563;SDS011;61834;50.196;6.454;2023-02-01T09:37:15;14.85;;;3.22;;
73563;SDS011;61834;50.196;6.454;2023-02-01T09:39:41;13.75;;;2.95;;
73563;SDS011;61834;50.196;6.454;2023-02-01T09:45:16;14.52;;;3.20;;
73563;SDS011;61834;50.196;6.454;2023-02-01T09:47:51;19.45;;;3.67;;
73563;SDS011;61834;50.196;6.454;2023-02-01T09:52:52;17.98;;;3.45;;
73563;SDS011;61834;50.196;6.454;2023-02-01T09:55:31;7.07;;;1.88;;
73563;SDS011;61834;50.196;6.454;2023-02-01T10:01:12;12.75;;;2.60;;
73563;SDS011;61834;50.196;6.454;2023-02-01T10:03:44;13.15;;;2.58;;
73563;SDS011;61834;50.196;6.454;2023-02-01T10:14:34;14.43;;;2.20;;
73563;SDS011;61834;50.196;6.454;2023-02-01T10:19:58;10.80;;;2.10;;
73563;SDS011;61834;50.196;6.454;2023-02-01T10:22:41;10.65;;;2.17;;
73563;SDS011;61834;50.196;6.454;2023-02-01T10:27:53;14.57;;;2.97;;
73563;SDS011;61834;50.196;6.454;2023-02-01T10:30:23;14.38;;;2.78;;
73563;SDS011;61834;50.196;6.454;2023-02-01T10:32:52;14.18;;;3.33;;
73563;SDS011;61834;50.196;6.454;2023-02-01T10:35:24;15.07;;;2.63;;
73563;SDS011;61834;50.196;6.454;2023-02-01T10:37:54;14.13;;;2.40;;
73563;SDS011;61834;50.196;6.454;2023-02-01T10:40:25;11.73;;;2.58;;
73563;SDS011;61834;50.196;6.454;2023-02-01T10:42:56;10.55;;;2.33;;
73563;SDS011;61834;50.196;6.454;2023-02-01T10:45:25;10.80;;;2.85;;
73563;SDS011;61834;50.196;6.454;2023-02-01T10:47:53;11.57;;;2.25;;
73563;SDS011;61834;50.196;6.454;2023-02-01T10:50:33;13.60;;;2.50;;
73563;SDS011;61834;50.196;6.454;2023-02-01T10:53:12;13.85;;;2.45;;
73563;SDS011;61834;50.196;6.454;2023-02-01T10:58:18;16.60;;;3.17;;
73563;SDS011;61834;50.196;6.454;2023-02-01T11:00:57;11.65;;;1.90;;
73563;SDS011;61834;50.196;6.454;2023-02-01T11:06:03;10.57;;;2.47;;
73563;SDS011;61834;50.196;6.454;2023-02-01T11:08:46;11.57;;;2.50;;
73563;SDS011;61834;50.196;6.454;2023-02-01T11:11:20;15.40;;;2.80;;
73563;SDS011;61834;50.196;6.454;2023-02-01T11:13:57;16.30;;;2.63;;
73563;SDS011;61834;50.196;6.454;2023-02-01T11:16:29;14.63;;;2.60;;
73563;SDS011;61834;50.196;6.454;2023-02-01T11:18:57;15.68;;;2.65;;
73563;SDS011;61834;50.196;6.454;2023-02-01T11:21:23;15.68;;;2.63;;
73563;SDS011;61834;50.196;6.454;2023-02-01T11:23:49;15.73;;;2.50;;
73563;SDS011;61834;50.196;6.454;2023-02-01T11:26:22;17.63;;;3.33;;
73563;SDS011;61834;50.196;6.454;2023-02-01T11:29:34;8.90;;;1.95;;
73563;SDS011;61834;50.196;6.454;2023-02-01T11:31:42;14.25;;;2.00;;
73563;SDS011;61834;50.196;6.454;2023-02-01T11:34:13;12.02;;;2.60;;
73563;SDS011;61834;50.196;6.454;2023-02-01T11:36:41;10.13;;;2.13;;
73563;SDS011;61834;50.196;6.454;2023-02-01T11:39:28;16.65;;;2.10;;
73563;SDS011;61834;50.196;6.454;2023-02-01T11:42:15;13.05;;;2.30;;
73563;SDS011;61834;50.196;6.454;2023-02-01T11:44:42;21.40;;;3.85;;
73563;SDS011;61834;50.196;6.454;2023-02-01T11:49:45;17.05;;;2.42;;
73563;SDS011;61834;50.196;6.454;2023-02-01T11:56:07;17.17;;;2.50;;
73563;SDS011;61834;50.196;6.454;2023-02-01T12:01:10;13.85;;;2.63;;
73563;SDS011;61834;50.196;6.454;2023-02-01T12:09:23;17.55;;;2.10;;
73563;SDS011;61834;50.196;6.454;2023-02-01T12:14:46;9.60;;;2.10;;
73563;SDS011;61834;50.196;6.454;2023-02-01T12:23:06;16.55;;;2.22;;
73563;SDS011;61834;50.196;6.454;2023-02-01T12:34:17;13.70;;;1.85;;
73563;SDS011;61834;50.196;6.454;2023-02-01T12:39:32;9.90;;;2.33;;
73563;SDS011;61834;50.196;6.454;2023-02-01T12:42:11;12.60;;;2.53;;
73563;SDS011;61834;50.196;6.454;2023-02-01T12:44:47;10.77;;;2.13;;
73563;SDS011;61834;50.196;6.454;2023-02-01T12:49:59;9.88;;;2.38;;
73563;SDS011;61834;50.196;6.454;2023-02-01T12:52:37;13.65;;;2.10;;
73563;SDS011;61834;50.196;6.454;2023-02-01T12:58:12;12.05;;;2.40;;
73563;SDS011;61834;50.196;6.454;2023-02-01T13:03:31;14.35;;;3.22;;
73563;SDS011;61834;50.196;6.454;2023-02-01T13:06:12;18.00;;;2.38;;
73563;SDS011;61834;50.196;6.454;2023-02-01T13:09:04;16.83;;;3.05;;
73563;SDS011;61834;50.196;6.454;2023-02-01T13:11:45;14.20;;;1.73;;
73563;SDS011;61834;50.196;6.454;2023-02-01T13:17:04;14.40;;;2.20;;
73563;SDS011;61834;50.196;6.454;2023-02-01T13:19:50;7.43;;;1.27;;
73563;SDS011;61834;50.196;6.454;2023-02-01T13:22:23;9.40;;;1.83;;
73563;SDS011;61834;50.196;6.454;2023-02-01T13:24:57;11.98;;;2.13;;
73563;SDS011;61834;50.196;6.454;2023-02-01T13:27:26;10.02;;;1.52;;
73563;SDS011;61834;50.196;6.454;2023-02-01T13:33:00;11.90;;;2.10;;
73563;SDS011;61834;50.196;6.454;2023-02-01T13:41:30;17.65;;;3.35;;
73563;SDS011;61834;50.196;6.454;2023-02-01T13:44:03;15.00;;;2.25;;
73563;SDS011;61834;50.196;6.454;2023-02-01T13:46:43;20.83;;;3.80;;
73563;SDS011;61834;50.196;6.454;2023-02-01T13:49:19;18.55;;;2.80;;
73563;SDS011;61834;50.196;6.454;2023-02-01T13:51:49;12.52;;;1.83;;
73563;SDS011;61834;50.196;6.454;2023-02-01T13:54:23;14.93;;;3.17;;
73563;SDS011;61834;50.196;6.454;2023-02-01T13:56:58;12.15;;;3.00;;
73563;SDS011;61834;50.196;6.454;2023-02-01T14:05:09;15.50;;;2.33;;
73563;SDS011;61834;50.196;6.454;2023-02-01T14:07:36;16.15;;;2.45;;
73563;SDS011;61834;50.196;6.454;2023-02-01T14:13:05;10.32;;;2.28;;
73563;SDS011;61834;50.196;6.454;2023-02-01T14:15:38;20.23;;;3.15;;
73563;SDS011;61834;50.196;6.454;2023-02-01T14:18:34;11.65;;;2.05;;
73563;SDS011;61834;50.196;6.454;2023-02-01T14:23:43;12.65;;;2.10;;
73563;SDS011;61834;50.196;6.454;2023-02-01T14:26:15;16.92;;;2.83;;
73563;SDS011;61834;50.196;6.454;2023-02-01T14:28:44;15.70;;;2.80;;
73563;SDS011;61834;50.196;6.454;2023-02-01T14:31:32;12.82;;;2.92;;
73563;SDS011;61834;50.196;6.454;2023-02-01T14:34:02;11.73;;;1.92;;
73563;SDS011;61834;50.196;6.454;2023-02-01T14:36:46;17.63;;;2.42;;
73563;SDS011;61834;50.196;6.454;2023-02-01T14:42:24;11.80;;;1.90;;
73563;SDS011;61834;50.196;6.454;2023-02-01T14:45:48;16.40;;;3.00;;
73563;SDS011;61834;50.196;6.454;2023-02-01T14:50:39;17.75;;;3.45;;
73563;SDS011;61834;50.196;6.454;2023-02-01T14:53:11;20.55;;;2.80;;
73563;SDS011;61834;50.196;6.454;2023-02-01T14:55:49;14.77;;;2.03;;
73563;SDS011;61834;50.196;6.454;2023-02-01T15:01:00;15.45;;;2.55;;
73563;SDS011;61834;50.196;6.454;2023-02-01T15:03:51;14.18;;;2.50;;
73563;SDS011;61834;50.196;6.454;2023-02-01T15:09:09;16.63;;;2.40;;
73563;SDS011;61834;50.196;6.454;2023-02-01T15:15:01;14.70;;;4.18;;
73563;SDS011;61834;50.196;6.454;2023-02-01T15:17:38;11.23;;;1.90;;
73563;SDS011;61834;50.196;6.454;2023-02-01T15:20:17;13.38;;;2.45;;
73563;SDS011;61834;50.196;6.454;2023-02-01T15:22:54;16.65;;;2.80;;
73563;SDS011;61834;50.196;6.454;2023-02-01T15:25:21;16.27;;;2.15;;
73563;SDS011;61834;50.196;6.454;2023-02-01T15:27:51;18.80;;;3.63;;
73563;SDS011;61834;50.196;6.454;2023-02-01T15:30:24;17.73;;;2.70;;
73563;SDS011;61834;50.196;6.454;2023-02-01T15:35:42;13.20;;;2.63;;
73563;SDS011;61834;50.196;6.454;2023-02-01T15:41:34;13.00;;;2.35;;
73563;SDS011;61834;50.196;6.454;2023-02-01T15:46:39;14.20;;;3.05;;
73563;SDS011;61834;50.196;6.454;2023-02-01T15:49:22;19.08;;;2.08;;
73563;SDS011;61834;50.196;6.454;2023-02-01T15:51:48;13.93;;;2.38;;
73563;SDS011;61834;50.196;6.454;2023-02-01T15:54:19;19.48;;;2.97;;
73563;SDS011;61834;50.196;6.454;2023-02-01T15:56:49;11.98;;;2.15;;
73563;SDS011;61834;50.196;6.454;2023-02-01T15:59:21;20.40;;;2.72;;
73563;SDS011;61834;50.196;6.454;2023-02-01T16:01:50;10.43;;;2.13;;
73563;SDS011;61834;50.196;6.454;2023-02-01T16:06:48;10.60;;;1.90;;
73563;SDS011;61834;50.196;6.454;2023-02-01T16:09:17;18.00;;;2.17;;
73563;SDS011;61834;50.196;6.454;2023-02-01T16:11:48;11.18;;;2.10;;
73563;SDS011;61834;50.196;6.454;2023-02-01T16:14:14;14.07;;;2.60;;
73563;SDS011;61834;50.196;6.454;2023-02-01T16:16:40;14.55;;;2.28;;
73563;SDS011;61834;50.196;6.454;2023-02-01T16:19:05;15.35;;;2.25;;
73563;SDS011;61834;50.196;6.454;2023-02-01T16:21:31;12.85;;;2.25;;
73563;SDS011;61834;50.196;6.454;2023-02-01T16:23:56;13.63;;;2.42;;
73563;SDS011;61834;50.196;6.454;2023-02-01T16:26:22;20.92;;;2.55;;
73563;SDS011;61834;50.196;6.454;2023-02-01T16:36:21;9.98;;;2.20;;
73563;SDS011;61834;50.196;6.454;2023-02-01T16:38:47;17.33;;;2.60;;
73563;SDS011;61834;50.196;6.454;2023-02-01T16:41:15;12.35;;;2.03;;
73563;SDS011;61834;50.196;6.454;2023-02-01T16:43:44;19.52;;;2.50;;
73563;SDS011;61834;50.196;6.454;2023-02-01T16:46:14;14.02;;;2.05;;
73563;SDS011;61834;50.196;6.454;2023-02-01T16:48:41;18.38;;;2.90;;
73563;SDS011;61834;50.196;6.454;2023-02-01T16:51:16;12.18;;;2.67;;
73563;SDS011;61834;50.196;6.454;2023-02-01T16:53:42;15.30;;;2.35;;
73563;SDS011;61834;50.196;6.454;2023-02-01T16:56:11;16.17;;;2.05;;
73563;SDS011;61834;50.196;6.454;2023-02-01T16:58:41;11.27;;;2.00;;
73563;SDS011;61834;50.196;6.454;2023-02-01T17:01:08;16.77;;;3.22;;
73563;SDS011;61834;50.196;6.454;2023-02-01T17:03:35;12.27;;;2.50;;
73563;SDS011;61834;50.196;6.454;2023-02-01T17:06:01;13.40;;;2.10;;
73563;SDS011;61834;50.196;6.454;2023-02-01T17:08:34;17.45;;;2.83;;
73563;SDS011;61834;50.196;6.454;2023-02-01T17:11:02;19.13;;;2.55;;
73563;SDS011;61834;50.196;6.454;2023-02-01T17:13:28;18.10;;;2.22;;
73563;SDS011;61834;50.196;6.454;2023-02-01T17:15:58;12.40;;;2.70;;
73563;SDS011;61834;50.196;6.454;2023-02-01T17:18:26;14.27;;;2.53;;
73563;SDS011;61834;50.196;6.454;2023-02-01T17:20:56;15.13;;;2.45;;
73563;SDS011;61834;50.196;6.454;2023-02-01T17:23:23;18.77;;;2.83;;
73563;SDS011;61834;50.196;6.454;2023-02-01T17:25:48;15.23;;;2.25;;
73563;SDS011;61834;50.196;6.454;2023-02-01T17:28:14;20.77;;;2.55;;
73563;SDS011;61834;50.196;6.454;2023-02-01T17:30:39;15.15;;;2.28;;